Time;durP1;ratioP1;P1;durP2;ratioP2;P2;SDS_P1;SDS_P2;PMS_P1;PMS_P2;Temp;Humidity;BMP_temperature;BMP_pressure;BME280_temperature;BME280_humidity;BME280_pressure;Samples;Min_cycle;Max_cycle;Signal;HPM_P1;HPM_P2
2021/08/17 00:00:18;;;;;;;;;;;21.30;57.50;;;;;;5055120;28;1598;-71
2021/08/17 00:02:44;;;;;;;;;;;21.30;57.70;;;;;;5070495;28;1311;-72
2021/08/17 00:05:10;;;;;;;;;;;21.30;57.70;;;;;;5054630;28;1956;-71
2021/08/17 00:07:35;;;;;;;;;;;21.20;57.60;;;;;;5059184;28;1355;-72
2021/08/17 00:10:04;;;;;;;;;;;21.20;57.80;;;;;;5055811;28;1291;-72
2021/08/17 00:12:30;;;;;;;;;;;21.20;57.70;;;;;;5070539;28;1357;-71
2021/08/17 00:14:55;;;;;;;;;;;21.20;57.80;;;;;;5054004;28;1353;-71
2021/08/17 00:17:20;;;;;;;;;;;21.20;57.60;;;;;;5054554;28;1328;-72
2021/08/17 00:19:46;;;;;;;;;;;21.20;57.40;;;;;;5055358;28;1357;-71
2021/08/17 00:22:12;;;;;;;;;;;21.20;57.70;;;;;;5055153;28;1341;-71
2021/08/17 00:24:38;;;;;;;;;;;21.20;57.90;;;;;;5070437;28;1898;-71
2021/08/17 00:27:03;;;;;;;;;;;21.20;57.90;;;;;;5054805;28;1346;-71
2021/08/17 00:29:28;;;;;;;;;;;21.20;58.00;;;;;;5055004;28;1290;-71
2021/08/17 00:31:54;;;;;;;;;;;21.20;57.80;;;;;;5055133;28;1271;-71
2021/08/17 00:34:19;;;;;;;;;;;21.20;57.80;;;;;;5054862;28;1319;-71
2021/08/17 00:36:46;;;;;;;;;;;21.20;58.00;;;;;;5070195;28;1282;-71
2021/08/17 00:39:12;;;;;;;;;;;21.20;58.00;;;;;;5053540;28;1350;-71
2021/08/17 00:41:38;;;;;;;;;;;21.20;58.00;;;;;;5054835;28;1315;-72
2021/08/17 00:44:04;;;;;;;;;;;21.20;58.00;;;;;;5069932;28;1956;-72
2021/08/17 00:46:30;;;;;;;;;;;21.20;58.00;;;;;;5070065;28;1296;-72
2021/08/17 00:48:55;;;;;;;;;;;21.20;58.20;;;;;;5065472;28;1329;-72
2021/08/17 00:51:21;;;;;;;;;;;21.20;58.30;;;;;;5044354;28;1268;-72
2021/08/17 00:53:46;;;;;;;;;;;21.20;58.40;;;;;;5054570;28;1103;-72
2021/08/17 00:56:14;;;;;;;;;;;21.20;58.20;;;;;;5052838;28;1608;-72
2021/08/17 00:58:39;;;;;;;;;;;21.10;58.20;;;;;;5069682;28;1319;-72
2021/08/17 01:01:04;;;;;;;;;;;21.10;58.20;;;;;;5069942;28;1094;-72
2021/08/17 01:03:31;;;;;;;;;;;21.10;58.30;;;;;;5069790;28;1285;-72
2021/08/17 01:05:57;;;;;;;;;;;21.10;58.50;;;;;;5054037;28;1906;-71
2021/08/17 01:08:23;;;;;;;;;;;21.10;58.40;;;;;;5069643;28;1399;-70
2021/08/17 01:10:48;;;;;;;;;;;21.10;58.30;;;;;;5054266;28;1345;-70
2021/08/17 01:13:14;;;;;;;;;;;21.10;58.10;;;;;;5052389;28;1462;-71
2021/08/17 01:15:39;;;;;;;;;;;21.10;58.20;;;;;;5053832;28;1318;-71
2021/08/17 01:18:07;;;;;;;;;;;21.10;58.50;;;;;;5054011;28;1416;-70
2021/08/17 01:20:32;;;;;;;;;;;21.10;58.50;;;;;;5054194;28;1447;-70
2021/08/17 01:22:57;;;;;;;;;;;21.10;58.40;;;;;;5069310;28;1309;-71
2021/08/17 01:25:24;;;;;;;;;;;21.10;58.30;;;;;;5053763;28;1898;-71
2021/08/17 01:27:49;;;;;;;;;;;21.10;58.40;;;;;;5052520;28;1338;-71
2021/08/17 01:30:15;;;;;;;;;;;21.10;58.40;;;;;;5053215;28;1286;-71
2021/08/17 01:32:42;;;;;;;;;;;21.00;58.30;;;;;;5052531;28;1260;-72
2021/08/17 01:35:08;;;;;;;;;;;21.00;58.00;;;;;;5053596;28;1294;-71
2021/08/17 01:37:34;;;;;;;;;;;21.00;58.00;;;;;;5053340;28;1256;-72
2021/08/17 01:40:00;;;;;;;;;;;21.00;58.10;;;;;;5053681;28;1345;-71
2021/08/17 01:42:25;;;;;;;;;;;21.00;58.20;;;;;;5053422;28;1302;-72
2021/08/17 01:44:51;;;;;;;;;;;21.00;58.20;;;;;;5053558;28;1945;-72
2021/08/17 01:47:16;;;;;;;;;;;21.00;58.20;;;;;;5053155;28;1398;-71
2021/08/17 01:49:42;;;;;;;;;;;21.00;58.20;;;;;;5053617;28;1161;-71
2021/08/17 01:52:07;;;;;;;;;;;21.00;58.10;;;;;;5053480;28;1462;-71
2021/08/17 01:54:33;;;;;;;;;;;21.00;58.10;;;;;;5053078;28;1278;-72
2021/08/17 01:56:58;;;;;;;;;;;21.00;58.30;;;;;;5053260;28;1406;-71
2021/08/17 01:59:24;;;;;;;;;;;21.00;58.40;;;;;;5053297;28;1354;-72
2021/08/17 02:01:49;;;;;;;;;;;21.00;58.40;;;;;;5053077;28;1408;-71
2021/08/17 02:04:14;;;;;;;;;;;21.00;58.40;;;;;;5053266;28;1971;-72
2021/08/17 02:06:40;;;;;;;;;;;21.00;58.30;;;;;;5055959;28;1302;-71
2021/08/17 02:09:05;;;;;;;;;;;21.00;58.50;;;;;;5073104;28;1277;-72
2021/08/17 02:11:31;;;;;;;;;;;21.00;58.30;;;;;;5071993;28;1173;-72
2021/08/17 02:13:56;;;;;;;;;;;21.00;58.20;;;;;;5073079;28;1279;-71
2021/08/17 02:16:22;;;;;;;;;;;21.00;58.10;;;;;;5072749;28;1264;-72
2021/08/17 02:18:47;;;;;;;;;;;21.00;58.00;;;;;;5072889;28;1273;-71
2021/08/17 02:21:12;;;;;;;;;;;21.00;58.00;;;;;;5071827;28;1327;-71
2021/08/17 02:23:39;;;;;;;;;;;21.00;58.20;;;;;;5061134;28;1319;-72
2021/08/17 02:26:04;;;;;;;;;;;21.00;58.10;;;;;;5054308;28;1910;-72
2021/08/17 02:28:30;;;;;;;;;;;21.00;58.00;;;;;;5047086;28;1320;-72
2021/08/17 02:30:55;;;;;;;;;;;21.00;58.20;;;;;;5044578;28;1269;-71
2021/08/17 02:33:21;;;;;;;;;;;21.00;58.20;;;;;;5043824;28;1432;-71
2021/08/17 02:35:46;;;;;;;;;;;21.00;58.10;;;;;;5047334;28;1277;-71
2021/08/17 02:38:11;;;;;;;;;;;21.00;58.10;;;;;;5060601;28;1297;-72
2021/08/17 02:40:37;;;;;;;;;;;21.00;58.10;;;;;;5072419;28;1368;-71
2021/08/17 02:43:03;;;;;;;;;;;21.00;58.00;;;;;;5071572;28;1990;-72
2021/08/17 02:45:28;;;;;;;;;;;20.90;58.10;;;;;;5068203;28;1910;-72
2021/08/17 02:47:54;;;;;;;;;;;20.90;58.20;;;;;;5067972;28;1294;-71
2021/08/17 02:50:20;;;;;;;;;;;20.90;58.00;;;;;;5051192;28;1294;-71
2021/08/17 02:52:45;;;;;;;;;;;20.90;58.10;;;;;;5052608;28;1060;-72
2021/08/17 02:55:11;;;;;;;;;;;21.00;58.20;;;;;;5067553;28;1463;-72
2021/08/17 02:57:36;;;;;;;;;;;20.90;58.10;;;;;;5051142;28;1454;-71
2021/08/17 03:02:29;;;;;;;;;;;20.90;58.00;;;;;;5069835;28;1811;-67
2021/08/17 03:04:55;;;;;;;;;;;20.90;58.00;;;;;;5072544;28;1907;-67
2021/08/17 03:07:20;;;;;;;;;;;20.90;57.80;;;;;;5072530;28;1067;-67
2021/08/17 03:09:46;;;;;;;;;;;20.90;58.00;;;;;;5058921;28;825;-67
2021/08/17 03:12:11;;;;;;;;;;;20.90;58.50;;;;;;5072728;28;1193;-67
2021/08/17 03:14:36;;;;;;;;;;;20.90;57.90;;;;;;5072369;28;947;-67
2021/08/17 03:17:02;;;;;;;;;;;20.90;57.90;;;;;;5072317;28;899;-66
2021/08/17 03:19:27;;;;;;;;;;;20.90;58.10;;;;;;5054596;28;1273;-67
2021/08/17 03:21:53;;;;;;;;;;;20.90;58.00;;;;;;5054691;28;1298;-67
2021/08/17 03:24:18;;;;;;;;;;;20.90;58.00;;;;;;5071880;28;1914;-68
2021/08/17 03:26:43;;;;;;;;;;;20.90;58.30;;;;;;5072558;28;1071;-67
2021/08/17 03:29:09;;;;;;;;;;;20.90;58.40;;;;;;5072269;28;1135;-67
2021/08/17 03:31:34;;;;;;;;;;;20.90;58.40;;;;;;5072332;28;1296;-67
2021/08/17 03:34:00;;;;;;;;;;;20.90;58.40;;;;;;5072296;28;1135;-67
2021/08/17 03:36:25;;;;;;;;;;;20.90;58.20;;;;;;5054286;28;1076;-67
2021/08/17 03:38:51;;;;;;;;;;;20.90;58.20;;;;;;5071990;28;933;-67
2021/08/17 03:41:16;;;;;;;;;;;20.90;58.30;;;;;;5072501;28;1329;-67
2021/08/17 03:43:42;;;;;;;;;;;20.80;58.20;;;;;;5072070;28;1275;-67
2021/08/17 03:46:08;;;;;;;;;;;20.90;58.20;;;;;;5072005;28;1910;-67
2021/08/17 03:48:33;;;;;;;;;;;20.90;58.40;;;;;;5073633;28;1204;-67
2021/08/17 03:50:59;;;;;;;;;;;20.90;58.30;;;;;;5084181;28;1216;-67
2021/08/17 03:53:25;;;;;;;;;;;20.90;58.40;;;;;;5074706;28;1115;-67
2021/08/17 03:55:50;;;;;;;;;;;20.90;58.50;;;;;;5075607;28;1142;-67
2021/08/17 03:58:16;;;;;;;;;;;20.80;58.50;;;;;;5075592;28;1119;-66
2021/08/17 04:00:41;;;;;;;;;;;20.90;58.40;;;;;;5075578;28;1278;-67
2021/08/17 04:03:07;;;;;;;;;;;20.90;58.40;;;;;;5057713;28;995;-67
2021/08/17 04:05:33;;;;;;;;;;;20.90;58.20;;;;;;5075373;28;1910;-67
2021/08/17 04:07:58;;;;;;;;;;;20.80;58.20;;;;;;5075303;28;1091;-67
2021/08/17 04:10:24;;;;;;;;;;;20.80;58.20;;;;;;5091158;28;1275;-67
2021/08/17 04:12:49;;;;;;;;;;;20.80;58.20;;;;;;5075304;28;1104;-67
2021/08/17 04:15:14;;;;;;;;;;;20.80;58.20;;;;;;5075327;28;1138;-67
2021/08/17 04:17:40;;;;;;;;;;;20.80;58.50;;;;;;5073945;28;1115;-67
2021/08/17 04:20:06;;;;;;;;;;;20.80;58.60;;;;;;5057647;28;1257;-67
2021/08/17 04:22:31;;;;;;;;;;;20.80;58.50;;;;;;5057316;28;1099;-67
2021/08/17 04:24:57;;;;;;;;;;;20.80;58.40;;;;;;5074832;28;1899;-67
2021/08/17 04:27:22;;;;;;;;;;;20.80;58.60;;;;;;5075006;28;1166;-67
2021/08/17 04:29:49;;;;;;;;;;;20.90;58.70;;;;;;5068006;28;1071;-67
2021/08/17 04:32:14;;;;;;;;;;;20.80;58.70;;;;;;5068314;28;1202;-67
2021/08/17 04:34:40;;;;;;;;;;;20.80;58.60;;;;;;5062196;28;929;-67
2021/08/17 04:37:05;;;;;;;;;;;20.80;58.70;;;;;;5074704;28;1318;-67
2021/08/17 04:39:31;;;;;;;;;;;20.80;58.70;;;;;;5074751;28;1067;-67
2021/08/17 04:41:56;;;;;;;;;;;20.80;58.70;;;;;;5074693;28;1307;-67
2021/08/17 04:44:21;;;;;;;;;;;20.80;58.80;;;;;;5067954;28;1890;-67
2021/08/17 04:46:47;;;;;;;;;;;20.80;58.80;;;;;;5054798;28;1068;-67
2021/08/17 04:49:12;;;;;;;;;;;20.80;58.70;;;;;;5074717;28;1170;-67
2021/08/17 04:51:38;;;;;;;;;;;20.80;58.70;;;;;;5074646;28;1234;-67
2021/08/17 04:54:03;;;;;;;;;;;20.80;58.70;;;;;;5074569;28;1215;-67
2021/08/17 04:56:29;;;;;;;;;;;20.80;58.60;;;;;;5056466;28;1163;-67
2021/08/17 04:58:54;;;;;;;;;;;20.80;58.70;;;;;;5074376;28;1205;-67
2021/08/17 05:01:20;;;;;;;;;;;20.80;58.20;;;;;;5074291;28;1302;-67
2021/08/17 05:03:45;;;;;;;;;;;20.80;57.50;;;;;;5074413;28;1152;-67
2021/08/17 05:06:10;;;;;;;;;;;20.80;57.70;;;;;;5074061;28;1977;-68
2021/08/17 05:08:37;;;;;;;;;;;20.80;58.90;;;;;;5056307;28;1253;-67
2021/08/17 05:11:02;;;;;;;;;;;20.80;58.90;;;;;;5074199;28;1286;-67
2021/08/17 05:13:28;;;;;;;;;;;20.90;59.10;;;;;;5074199;28;1388;-67
2021/08/17 05:15:53;;;;;;;;;;;20.90;59.30;;;;;;5074120;28;1278;-66
2021/08/17 05:18:19;;;;;;;;;;;20.90;60.60;;;;;;5066098;28;2163;-66
2021/08/17 05:20:44;;;;;;;;;;;20.90;59.40;;;;;;5067806;28;2070;-66
2021/08/17 05:23:10;;;;;;;;;;;20.90;59.90;;;;;;5055575;28;1363;-67
2021/08/17 05:25:35;;;;;;;;;;;21.00;60.60;;;;;;5070414;28;2255;-67
2021/08/17 05:28:00;;;;;;;;;;;21.00;59.40;;;;;;5071036;28;1277;-66
2021/08/17 05:30:26;;;;;;;;;;;21.00;59.50;;;;;;5058692;28;2035;-67
2021/08/17 05:32:51;;;;;;;;;;;21.00;59.60;;;;;;5070280;28;1173;-67
2021/08/17 05:35:17;;;;;;;;;;;21.00;59.40;;;;;;5061665;28;1094;-67
2021/08/17 05:37:42;;;;;;;;;;;21.00;59.40;;;;;;5071027;28;1154;-66
2021/08/17 05:40:08;;;;;;;;;;;21.00;59.50;;;;;;5073621;28;1287;-66
2021/08/17 05:42:33;;;;;;;;;;;21.00;59.60;;;;;;5089096;28;1185;-66
2021/08/17 05:44:59;;;;;;;;;;;21.00;60.00;;;;;;5073518;28;1922;-67
2021/08/17 05:47:25;;;;;;;;;;;21.00;59.60;;;;;;5073342;28;1084;-66
2021/08/17 05:49:51;;;;;;;;;;;21.00;59.70;;;;;;5055538;28;1215;-66
2021/08/17 05:52:16;;;;;;;;;;;21.00;60.40;;;;;;5072932;28;1311;-66
2021/08/17 05:54:42;;;;;;;;;;;21.00;59.90;;;;;;5069907;28;1379;-66
2021/08/17 05:57:07;;;;;;;;;;;21.00;59.90;;;;;;5071917;28;1333;-66
2021/08/17 05:59:33;;;;;;;;;;;21.00;60.20;;;;;;5073289;28;1246;-66
2021/08/17 06:01:59;;;;;;;;;;;21.00;61.10;;;;;;5088926;28;1348;-66
2021/08/17 06:04:24;;;;;;;;;;;21.00;60.50;;;;;;5073075;28;1961;-67
2021/08/17 06:06:49;;;;;;;;;;;21.00;60.50;;;;;;5072917;28;1288;-67
2021/08/17 06:09:15;;;;;;;;;;;21.00;60.50;;;;;;5073079;28;1268;-67
2021/08/17 06:11:41;;;;;;;;;;;21.00;60.60;;;;;;5088649;28;1374;-67
2021/08/17 06:14:06;;;;;;;;;;;21.00;60.70;;;;;;5072979;28;1261;-67
2021/08/17 06:16:33;;;;;;;;;;;21.00;60.60;;;;;;5072355;28;1338;-67
2021/08/17 06:18:58;;;;;;;;;;;21.00;60.40;;;;;;5072729;28;1256;-67
2021/08/17 06:21:24;;;;;;;;;;;21.00;60.40;;;;;;5072693;28;1338;-67
2021/08/17 06:23:49;;;;;;;;;;;21.00;60.60;;;;;;5072831;28;1307;-67
2021/08/17 06:26:15;;;;;;;;;;;21.00;61.00;;;;;;5072392;28;1906;-67
2021/08/17 06:28:41;;;;;;;;;;;21.00;61.00;;;;;;5072729;28;1267;-66
2021/08/17 06:31:06;;;;;;;;;;;21.00;60.80;;;;;;5060887;28;1201;-66
2021/08/17 06:33:32;;;;;;;;;;;21.00;61.30;;;;;;5072927;28;1277;-67
2021/08/17 06:35:57;;;;;;;;;;;21.00;60.50;;;;;;5072186;28;1341;-67
2021/08/17 06:38:23;;;;;;;;;;;21.00;60.90;;;;;;5072868;28;1292;-68
2021/08/17 06:40:48;;;;;;;;;;;21.00;60.50;;;;;;5072362;28;1330;-69
2021/08/17 06:43:14;;;;;;;;;;;21.00;60.50;;;;;;5072790;28;1251;-67
2021/08/17 06:45:39;;;;;;;;;;;21.00;60.90;;;;;;5072412;28;1901;-68
2021/08/17 06:48:05;;;;;;;;;;;21.00;60.80;;;;;;5072581;28;1286;-68
2021/08/17 06:50:30;;;;;;;;;;;21.00;60.80;;;;;;5054195;28;1318;-67
2021/08/17 06:52:55;;;;;;;;;;;21.00;60.70;;;;;;5072880;28;1360;-67
2021/08/17 06:55:21;;;;;;;;;;;21.00;60.90;;;;;;5067371;28;1470;-67
2021/08/17 06:57:46;;;;;;;;;;;21.00;60.90;;;;;;5072657;28;1321;-67
2021/08/17 07:00:12;;;;;;;;;;;21.00;60.90;;;;;;5087888;28;1373;-67
2021/08/17 07:02:37;;;;;;;;;;;21.00;61.00;;;;;;5072713;28;1301;-67
2021/08/17 07:05:03;;;;;;;;;;;21.00;61.10;;;;;;5087709;28;1906;-67
2021/08/17 07:07:28;;;;;;;;;;;21.00;60.90;;;;;;5072556;28;1257;-67
2021/08/17 07:09:54;;;;;;;;;;;21.00;60.70;;;;;;5072576;28;1373;-67
2021/08/17 07:12:19;;;;;;;;;;;21.00;61.00;;;;;;5072395;28;1264;-67
2021/08/17 07:14:45;;;;;;;;;;;21.00;60.90;;;;;;5072335;28;1127;-67
2021/08/17 07:17:10;;;;;;;;;;;21.00;60.90;;;;;;5071999;28;1310;-67
2021/08/17 07:19:36;;;;;;;;;;;21.00;61.00;;;;;;5072206;28;1270;-67
2021/08/17 07:22:01;;;;;;;;;;;21.00;60.90;;;;;;5072370;28;1283;-67
2021/08/17 07:24:27;;;;;;;;;;;21.00;60.80;;;;;;5054220;28;1957;-67
2021/08/17 07:26:52;;;;;;;;;;;21.00;60.80;;;;;;5072925;28;1287;-67
2021/08/17 07:29:18;;;;;;;;;;;21.00;60.70;;;;;;5074187;28;1267;-67
2021/08/17 07:31:43;;;;;;;;;;;21.00;61.20;;;;;;5066164;28;1371;-67
2021/08/17 07:34:09;;;;;;;;;;;21.00;60.70;;;;;;5075908;28;1313;-67
2021/08/17 07:36:36;;;;;;;;;;;21.00;61.20;;;;;;5075543;28;1048;-67
2021/08/17 07:39:02;;;;;;;;;;;21.00;60.50;;;;;;5075948;28;1139;-67
2021/08/17 07:41:27;;;;;;;;;;;21.00;60.30;;;;;;5072673;28;1291;-68
2021/08/17 07:43:53;;;;;;;;;;;21.00;60.40;;;;;;5075067;28;1322;-67
2021/08/17 07:46:18;;;;;;;;;;;21.00;60.70;;;;;;5075380;28;1948;-67
2021/08/17 07:48:44;;;;;;;;;;;21.00;60.70;;;;;;5075576;28;1247;-68
2021/08/17 07:51:09;;;;;;;;;;;21.00;60.50;;;;;;5075218;28;1313;-67
2021/08/17 07:53:35;;;;;;;;;;;21.00;60.70;;;;;;5057935;28;1312;-67
2021/08/17 07:56:00;;;;;;;;;;;21.00;60.80;;;;;;5069877;28;1075;-67
2021/08/17 07:58:25;;;;;;;;;;;21.00;61.00;;;;;;5075754;28;1298;-68
2021/08/17 08:00:51;;;;;;;;;;;21.00;60.90;;;;;;5090842;28;1378;-68
2021/08/17 08:03:16;;;;;;;;;;;21.00;61.20;;;;;;5075192;28;1291;-67
2021/08/17 08:05:42;;;;;;;;;;;21.00;60.90;;;;;;5090350;28;1902;-67
2021/08/17 08:08:07;;;;;;;;;;;21.00;61.10;;;;;;5075260;28;1294;-67
2021/08/17 08:10:33;;;;;;;;;;;21.00;61.20;;;;;;5075097;28;1212;-67
2021/08/17 08:12:58;;;;;;;;;;;21.00;61.10;;;;;;5075396;28;1371;-67
2021/08/17 08:15:23;;;;;;;;;;;21.00;61.10;;;;;;5074808;28;1383;-67
2021/08/17 08:17:49;;;;;;;;;;;21.00;61.00;;;;;;5075382;28;1260;-68
2021/08/17 08:20:14;;;;;;;;;;;21.00;61.00;;;;;;5074703;28;1287;-67
2021/08/17 08:22:40;;;;;;;;;;;20.90;60.80;;;;;;5075069;28;1271;-67
2021/08/17 08:25:06;;;;;;;;;;;20.90;60.90;;;;;;5074636;28;1898;-67
2021/08/17 08:27:32;;;;;;;;;;;20.90;61.00;;;;;;5090594;28;1263;-67
2021/08/17 08:29:58;;;;;;;;;;;20.90;60.80;;;;;;5090458;28;1668;-67
2021/08/17 08:32:23;;;;;;;;;;;20.90;60.80;;;;;;5075062;28;1265;-67
2021/08/17 08:34:49;;;;;;;;;;;20.90;60.80;;;;;;5074655;28;1310;-67
2021/08/17 08:37:14;;;;;;;;;;;20.90;60.90;;;;;;5074685;28;1256;-67
2021/08/17 08:39:40;;;;;;;;;;;21.00;61.10;;;;;;5074475;28;1382;-67
2021/08/17 08:42:05;;;;;;;;;;;20.90;60.90;;;;;;5074556;28;1338;-67
2021/08/17 08:44:31;;;;;;;;;;;20.90;60.90;;;;;;5089764;28;1953;-66
2021/08/17 08:46:56;;;;;;;;;;;20.90;60.80;;;;;;5074394;28;1319;-67
2021/08/17 08:49:22;;;;;;;;;;;20.90;61.00;;;;;;5090318;28;1192;-67
2021/08/17 08:51:47;;;;;;;;;;;20.90;61.00;;;;;;5074481;28;1401;-67
2021/08/17 08:54:13;;;;;;;;;;;20.90;60.90;;;;;;5074543;28;1297;-67
2021/08/17 08:56:38;;;;;;;;;;;20.90;60.90;;;;;;5056030;28;1179;-67
2021/08/17 08:59:04;;;;;;;;;;;20.90;61.00;;;;;;5074437;28;1288;-67
2021/08/17 09:01:29;;;;;;;;;;;20.90;61.10;;;;;;5067934;22;4075;-73
2021/08/17 09:03:56;;;;;;;;;;;20.90;61.30;;;;;;5024010;28;1219;-73
2021/08/17 09:06:23;;;;;;;;;;;20.90;61.20;;;;;;5003310;28;1969;-73
2021/08/17 09:09:02;;;;;;;;;;;20.90;61.20;;;;;;5009106;28;1344;-73
2021/08/17 09:11:27;;;;;;;;;;;20.90;61.50;;;;;;5021385;28;1189;-72
2021/08/17 09:13:53;;;;;;;;;;;21.00;61.30;;;;;;5014123;28;1102;-71
2021/08/17 09:16:22;;;;;;;;;;;20.90;60.60;;;;;;4996275;28;1456;-71
2021/08/17 09:18:49;;;;;;;;;;;20.90;60.10;;;;;;5014219;28;1346;-72
2021/08/17 09:21:15;;;;;;;;;;;20.90;60.20;;;;;;5014235;28;1204;-72
2021/08/17 09:23:40;;;;;;;;;;;20.80;60.20;;;;;;4993411;28;2323;-72
2021/08/17 09:26:22;;;;;;;;;;;20.80;59.70;;;;;;5016988;28;1902;-72
2021/08/17 09:28:52;;;;;;;;;;;20.80;59.50;;;;;;5010620;28;1128;-72
2021/08/17 09:31:31;;;;;;;;;;;20.80;59.40;;;;;;5027283;28;1291;-72
2021/08/17 09:33:56;;;;;;;;;;;20.80;59.50;;;;;;4998603;28;1156;-72
2021/08/17 09:36:21;;;;;;;;;;;20.70;59.40;;;;;;5026092;28;1306;-72
2021/08/17 09:38:47;;;;;;;;;;;20.70;59.30;;;;;;5020673;28;1391;-72
2021/08/17 09:41:22;;;;;;;;;;;20.70;59.30;;;;;;5013965;28;1613;-72
2021/08/17 09:43:57;;;;;;;;;;;20.70;59.20;;;;;;5013886;28;1154;-72
2021/08/17 09:46:26;;;;;;;;;;;20.70;59.10;;;;;;5013799;28;1965;-71
2021/08/17 09:48:52;;;;;;;;;;;20.70;59.20;;;;;;5013788;28;1331;-72
2021/08/17 09:51:30;;;;;;;;;;;20.70;59.00;;;;;;4995570;28;1633;-72
2021/08/17 09:54:09;;;;;;;;;;;20.70;58.90;;;;;;4996021;28;1376;-71
2021/08/17 09:56:34;;;;;;;;;;;20.70;59.20;;;;;;5000963;28;1110;-72
2021/08/17 09:58:59;;;;;;;;;;;20.60;59.10;;;;;;5013781;28;1266;-72
2021/08/17 10:01:25;;;;;;;;;;;20.60;59.10;;;;;;5013406;28;1313;-72
2021/08/17 10:03:50;;;;;;;;;;;20.60;59.20;;;;;;5013789;28;1216;-72
2021/08/17 10:06:16;;;;;;;;;;;20.60;58.90;;;;;;5013166;28;1976;-72
2021/08/17 10:08:41;;;;;;;;;;;20.60;59.00;;;;;;5013686;28;1407;-71
2021/08/17 10:11:07;;;;;;;;;;;20.70;59.30;;;;;;4995841;28;1283;-72
2021/08/17 10:13:32;;;;;;;;;;;20.70;59.30;;;;;;5013309;28;1406;-71
2021/08/17 10:15:58;;;;;;;;;;;20.70;58.90;;;;;;4995581;28;1293;-71
2021/08/17 10:18:24;;;;;;;;;;;20.70;59.40;;;;;;4995745;28;1316;-71
2021/08/17 10:20:50;;;;;;;;;;;20.70;59.30;;;;;;4995588;28;1308;-72
2021/08/17 10:23:16;;;;;;;;;;;20.70;59.00;;;;;;4995787;28;1113;-71
2021/08/17 10:25:42;;;;;;;;;;;20.70;59.00;;;;;;4995603;28;1954;-71
2021/08/17 10:28:21;;;;;;;;;;;20.70;59.20;;;;;;4995724;28;1207;-71
2021/08/17 10:30:47;;;;;;;;;;;20.70;59.20;;;;;;4995642;28;1392;-72
2021/08/17 10:33:12;;;;;;;;;;;20.70;59.20;;;;;;5013196;28;1175;-72
2021/08/17 10:35:47;;;;;;;;;;;20.60;59.90;;;;;;4995126;28;1554;-71
2021/08/17 10:38:12;;;;;;;;;;;20.70;58.90;;;;;;5013259;28;1041;-71
2021/08/17 10:40:50;;;;;;;;;;;20.70;59.60;;;;;;5013214;28;1308;-71
2021/08/17 10:43:19;;;;;;;;;;;20.70;59.50;;;;;;4985657;28;1318;-72
2021/08/17 10:45:54;;;;;;;;;;;20.70;59.10;;;;;;5010283;28;1890;-71
2021/08/17 10:48:38;;;;;;;;;;;20.70;58.80;;;;;;4995388;28;1073;-71
2021/08/17 10:51:07;;;;;;;;;;;20.70;58.50;;;;;;5012993;28;1259;-72
2021/08/17 10:53:36;;;;;;;;;;;20.70;58.50;;;;;;4995589;28;1294;-71
2021/08/17 10:56:20;;;;;;;;;;;20.60;59.00;;;;;;5018004;28;1139;-72
2021/08/17 10:58:46;;;;;;;;;;;20.60;58.50;;;;;;5012974;28;1136;-72
2021/08/17 11:01:11;;;;;;;;;;;20.60;58.60;;;;;;4996352;28;1393;-72
2021/08/17 11:03:40;;;;;;;;;;;20.60;58.50;;;;;;5016929;28;1077;-72
2021/08/17 11:06:05;;;;;;;;;;;20.60;58.10;;;;;;5015365;28;1914;-73
2021/08/17 11:08:31;;;;;;;;;;;20.70;58.00;;;;;;5016766;28;1153;-72
2021/08/17 11:10:56;;;;;;;;;;;20.60;57.90;;;;;;5016534;28;1269;-72
2021/08/17 11:13:25;;;;;;;;;;;20.60;58.30;;;;;;5016684;28;1136;-72
2021/08/17 11:16:09;;;;;;;;;;;20.60;58.10;;;;;;5016501;28;1125;-72
2021/08/17 11:18:53;;;;;;;;;;;20.60;58.60;;;;;;4999056;28;1088;-72
2021/08/17 11:21:37;;;;;;;;;;;20.60;58.30;;;;;;5016552;28;1333;-71
2021/08/17 11:24:09;;;;;;;;;;;20.70;58.60;;;;;;5017105;28;1060;-72
2021/08/17 11:26:35;;;;;;;;;;;20.70;58.70;;;;;;4999105;28;1902;-72
2021/08/17 11:29:01;;;;;;;;;;;20.60;58.70;;;;;;5016982;28;1284;-72
2021/08/17 11:31:26;;;;;;;;;;;20.60;58.70;;;;;;5028680;28;1224;-72
2021/08/17 11:34:10;;;;;;;;;;;20.60;58.90;;;;;;5016995;28;1292;-73
2021/08/17 11:36:36;;;;;;;;;;;20.60;59.10;;;;;;5017707;28;1085;-73
2021/08/17 11:39:18;;;;;;;;;;;20.60;60.20;;;;;;5017574;28;1485;-73
2021/08/17 11:41:43;;;;;;;;;;;20.60;61.00;;;;;;5000381;28;1361;-73
2021/08/17 11:44:10;;;;;;;;;;;20.60;60.70;;;;;;5017317;28;1403;-73
2021/08/17 11:46:35;;;;;;;;;;;20.60;61.10;;;;;;5016730;28;1898;-70
2021/08/17 11:49:19;;;;;;;;;;;20.70;62.20;;;;;;4998752;28;1362;-72
2021/08/17 11:51:45;;;;;;;;;;;20.70;62.50;;;;;;5016168;28;1324;-72
2021/08/17 11:54:14;;;;;;;;;;;20.70;62.80;;;;;;5016173;28;1297;-71
2021/08/17 11:56:40;;;;;;;;;;;20.70;62.80;;;;;;5020615;28;1156;-71
2021/08/17 11:59:05;;;;;;;;;;;20.70;62.90;;;;;;5016104;28;1260;-72
2021/08/17 12:01:31;;;;;;;;;;;20.70;62.90;;;;;;5015859;28;1377;-72
2021/08/17 12:04:06;;;;;;;;;;;20.70;63.50;;;;;;5016010;28;1068;-72
2021/08/17 12:06:31;;;;;;;;;;;20.70;63.50;;;;;;5015929;28;1961;-72
2021/08/17 12:09:15;;;;;;;;;;;20.70;63.70;;;;;;4998935;28;1332;-71
2021/08/17 12:11:59;;;;;;;;;;;20.70;63.30;;;;;;4998649;28;1365;-72
2021/08/17 12:14:24;;;;;;;;;;;20.70;62.50;;;;;;4997874;28;1087;-72
2021/08/17 12:16:56;;;;;;;;;;;20.70;62.20;;;;;;5009843;28;1061;-73
2021/08/17 12:19:21;;;;;;;;;;;20.70;62.90;;;;;;5010468;28;1877;-74
2021/08/17 12:21:47;;;;;;;;;;;20.70;62.10;;;;;;5002641;28;1797;-73
2021/08/17 12:24:19;;;;;;;;;;;20.70;61.70;;;;;;5015419;28;1267;-70
2021/08/17 12:26:52;;;;;;;;;;;20.70;61.90;;;;;;5015155;28;1954;-69
2021/08/17 12:29:22;;;;;;;;;;;20.70;61.90;;;;;;5017038;28;1324;-70
2021/08/17 12:31:48;;;;;;;;;;;20.70;62.50;;;;;;5007567;28;1303;-70
2021/08/17 12:34:13;;;;;;;;;;;20.70;63.00;;;;;;4997632;28;1364;-69
2021/08/17 12:36:42;;;;;;;;;;;20.70;63.20;;;;;;5014955;28;1171;-70
2021/08/17 12:39:08;;;;;;;;;;;20.80;63.30;;;;;;5015090;28;1324;-70
2021/08/17 12:41:34;;;;;;;;;;;20.70;63.30;;;;;;5015612;28;1400;-70
2021/08/17 12:44:00;;;;;;;;;;;20.70;63.50;;;;;;5015121;28;1327;-70
2021/08/17 12:46:25;;;;;;;;;;;20.80;63.80;;;;;;5014788;28;1895;-71
2021/08/17 12:48:51;;;;;;;;;;;20.80;63.80;;;;;;5014860;28;1332;-71
2021/08/17 12:51:22;;;;;;;;;;;20.80;63.90;;;;;;5014868;28;1287;-70
2021/08/17 12:53:48;;;;;;;;;;;20.80;64.00;;;;;;5014991;28;1351;-70
2021/08/17 12:56:14;;;;;;;;;;;20.80;64.20;;;;;;5001694;28;1207;-70
2021/08/17 12:58:39;;;;;;;;;;;20.80;64.30;;;;;;5014867;28;1144;-70
2021/08/17 13:01:05;;;;;;;;;;;20.80;64.40;;;;;;5014656;28;1352;-70
2021/08/17 13:03:30;;;;;;;;;;;20.80;64.50;;;;;;5014533;28;1285;-69
2021/08/17 13:05:56;;;;;;;;;;;20.80;64.60;;;;;;5014060;28;1895;-70
2021/08/17 13:08:22;;;;;;;;;;;20.90;64.70;;;;;;5014711;28;1138;-70
2021/08/17 13:10:47;;;;;;;;;;;20.80;64.80;;;;;;5015046;28;1315;-70
2021/08/17 13:13:14;;;;;;;;;;;20.80;64.90;;;;;;4997371;28;1333;-70
2021/08/17 13:15:39;;;;;;;;;;;20.80;64.90;;;;;;5014118;28;1293;-70
2021/08/17 13:18:05;;;;;;;;;;;20.90;65.10;;;;;;5014189;28;1270;-70
2021/08/17 13:20:30;;;;;;;;;;;20.90;65.20;;;;;;5014365;28;1320;-70
2021/08/17 13:22:56;;;;;;;;;;;20.90;65.20;;;;;;5014518;28;1286;-69
2021/08/17 13:25:21;;;;;;;;;;;20.90;65.20;;;;;;5012979;28;1966;-69
2021/08/17 13:27:47;;;;;;;;;;;20.90;65.20;;;;;;5014476;28;1365;-70
2021/08/17 13:30:12;;;;;;;;;;;20.90;65.30;;;;;;5023457;28;1288;-69
2021/08/17 13:32:38;;;;;;;;;;;20.90;65.30;;;;;;5016640;28;1328;-70
2021/08/17 13:35:04;;;;;;;;;;;20.90;65.40;;;;;;5013962;28;1378;-69
2021/08/17 13:37:29;;;;;;;;;;;20.90;65.50;;;;;;4996476;28;1101;-71
2021/08/17 13:39:55;;;;;;;;;;;20.90;65.60;;;;;;5014036;28;1228;-71
2021/08/17 13:42:22;;;;;;;;;;;20.90;65.70;;;;;;4996344;28;1376;-72
2021/08/17 13:44:48;;;;;;;;;;;20.90;65.90;;;;;;5013844;28;1922;-73
2021/08/17 13:47:13;;;;;;;;;;;20.90;65.90;;;;;;5013416;28;1253;-73
2021/08/17 13:49:39;;;;;;;;;;;20.90;66.10;;;;;;5013990;28;1261;-72
2021/08/17 13:52:04;;;;;;;;;;;20.90;66.20;;;;;;5013844;28;1339;-72
2021/08/17 13:54:30;;;;;;;;;;;20.90;66.30;;;;;;5015675;28;1399;-72
2021/08/17 13:56:55;;;;;;;;;;;20.90;66.50;;;;;;5015395;28;1260;-73
2021/08/17 13:59:23;;;;;;;;;;;20.90;66.70;;;;;;5013740;28;1503;-72
2021/08/17 14:01:48;;;;;;;;;;;20.90;66.70;;;;;;5013245;28;1349;-73
2021/08/17 14:04:13;;;;;;;;;;;21.00;67.00;;;;;;5013788;28;1088;-73
2021/08/17 14:06:42;;;;;;;;;;;21.00;67.00;;;;;;5013083;28;1914;-72
2021/08/17 14:09:07;;;;;;;;;;;21.00;66.90;;;;;;5013767;28;1268;-72
2021/08/17 14:11:33;;;;;;;;;;;21.00;66.70;;;;;;4995882;28;1326;-72
2021/08/17 14:13:59;;;;;;;;;;;21.00;66.40;;;;;;5013571;28;1084;-72
2021/08/17 14:16:25;;;;;;;;;;;21.00;66.20;;;;;;4995204;28;1290;-73
2021/08/17 14:18:50;;;;;;;;;;;20.90;65.90;;;;;;5013314;28;1289;-73
2021/08/17 14:21:16;;;;;;;;;;;20.90;65.70;;;;;;5013165;28;1403;-73
2021/08/17 14:23:42;;;;;;;;;;;20.90;65.70;;;;;;4979712;28;1375;-72
2021/08/17 14:26:09;;;;;;;;;;;20.90;65.30;;;;;;5012905;28;1977;-73
2021/08/17 14:28:34;;;;;;;;;;;20.90;65.60;;;;;;5013428;28;865;-73